Time;durP1;ratioP1;P1;durP2;ratioP2;P2;SDS_P1;SDS_P2;PMS_P1;PMS_P2;Temp;Humidity;BMP_temperature;BMP_pressure;BME280_temperature;BME280_humidity;BME280_pressure;Samples;Min_cycle;Max_cycle;Signal;HPM_P1;HPM_P2
2022/07/18 00:00:49;;;;;;;3.20;2.10;;;;;;;16.15;65.77;99588.34;25834;1315;3026663;-65
2022/07/18 00:03:18;;;;;;;3.70;2.10;;;;;;;16.03;66.23;99584.39;25849;1313;3055275;-65
2022/07/18 00:05:47;;;;;;;3.30;2.20;;;;;;;15.97;65.96;99595.49;25906;1313;3026201;-66
2022/07/18 00:08:19;;;;;;;3.00;2.00;;;;;;;15.82;66.02;99594.59;25818;1315;3051891;-64
2022/07/18 00:10:48;;;;;;;3.90;2.80;;;;;;;15.80;66.28;99590.08;25950;1315;3026308;-67
2022/07/18 00:13:23;;;;;;;3.40;2.40;;;;;;;15.75;66.17;99591.96;25836;1315;3053581;-67
2022/07/18 00:16:12;;;;;;;4.60;3.20;;;;;;;15.67;66.18;99593.09;25901;1314;3052677;-67
2022/07/18 00:18:42;;;;;;;8.60;3.00;;;;;;;15.60;65.21;99589.36;25851;1315;3026583;-63
2022/07/18 00:21:12;;;;;;;4.60;3.00;;;;;;;15.56;64.42;99592.92;25896;1314;3026056;-66
2022/07/18 00:23:47;;;;;;;5.20;3.30;;;;;;;15.47;64.38;99587.02;25842;1313;3053443;-64
2022/07/18 00:26:16;;;;;;;7.20;3.90;;;;;;;15.40;64.09;99584.05;25961;1315;3027214;-65
2022/07/18 00:28:47;;;;;;;5.70;3.50;;;;;;;15.41;63.56;99589.98;25812;1313;3049927;-64
2022/07/18 00:31:16;;;;;;;7.70;3.70;;;;;;;15.36;63.26;99603.30;25940;1315;3026412;-65
2022/07/18 00:33:47;;;;;;;6.60;4.20;;;;;;;15.38;63.15;99596.36;25834;1315;3056251;-64
2022/07/18 00:36:16;;;;;;;6.00;4.10;;;;;;;15.36;63.09;99605.77;25933;1315;3026687;-65
2022/07/18 00:38:45;;;;;;;4.00;2.80;;;;;;;15.33;63.14;99598.25;25829;1315;3026636;-66
2022/07/18 00:41:15;;;;;;;6.20;2.20;;;;;;;15.29;63.25;99601.70;25957;1315;3055513;-66
2022/07/18 00:43:44;;;;;;;2.70;1.60;;;;;;;15.17;63.22;99592.05;25965;1314;3026338;-64
2022/07/18 00:46:13;;;;;;;5.70;2.30;;;;;;;15.16;62.90;99588.05;25950;1315;3026170;-63
2022/07/18 00:48:42;;;;;;;7.00;2.90;;;;;;;15.16;62.64;99601.16;25815;1315;3026658;-64
2022/07/18 00:51:14;;;;;;;5.70;2.70;;;;;;;15.13;62.65;99593.04;25943;1312;3049619;-64
2022/07/18 00:53:44;;;;;;;5.50;3.30;;;;;;;15.09;62.46;99600.26;25843;1314;3026678;-66
2022/07/18 00:56:13;;;;;;;8.90;3.40;;;;;;;15.08;62.25;99601.23;25829;1315;3056098;-65
2022/07/18 00:58:43;;;;;;;2.90;1.80;;;;;;;15.03;62.48;99604.92;25814;1315;3027539;-65
2022/07/18 01:04:01;;;;;;;2.70;1.80;;;;;;;14.90;62.72;99620.05;25850;1313;3056419;-65
2022/07/18 01:06:30;;;;;;;3.50;1.10;;;;;;;14.85;62.83;99618.53;25938;1313;3026742;-65
2022/07/18 01:08:59;;;;;;;2.00;1.10;;;;;;;14.78;63.06;99621.66;25813;1313;3052220;-65
2022/07/18 01:11:28;;;;;;;4.20;1.00;;;;;;;14.66;63.62;99625.86;25954;1313;3027599;-67
2022/07/18 01:13:57;;;;;;;1.60;1.00;;;;;;;14.58;63.80;99618.53;25850;1313;3051721;-66
2022/07/18 01:16:26;;;;;;;1.60;1.00;;;;;;;14.54;63.46;99623.45;25876;1313;3025913;-62
2022/07/18 01:18:55;;;;;;;2.60;0.80;;;;;;;14.48;63.32;99626.19;25892;1313;3026967;-63
2022/07/18 01:21:24;;;;;;;1.60;1.20;;;;;;;14.41;63.56;99618.54;25845;1313;3051753;-65
2022/07/18 01:23:53;;;;;;;1.70;0.90;;;;;;;14.39;63.48;99618.15;25882;1313;3027100;-63
2022/07/18 01:26:23;;;;;;;2.50;1.10;;;;;;;14.40;63.27;99618.80;25807;1313;3047898;-65
2022/07/18 01:28:52;;;;;;;1.70;0.90;;;;;;;14.38;63.44;99622.16;25886;1313;3027245;-65
2022/07/18 01:31:24;;;;;;;1.60;0.90;;;;;;;14.44;62.93;99622.92;25958;1313;3026928;-65
2022/07/18 01:33:54;;;;;;;2.00;1.20;;;;;;;14.42;62.88;99618.48;25862;1313;3026068;-66
2022/07/18 01:36:23;;;;;;;1.30;1.10;;;;;;;14.39;62.59;99624.66;25813;1313;3051198;-61
2022/07/18 01:38:52;;;;;;;4.50;1.00;;;;;;;14.37;62.80;99629.05;25965;1313;3026495;-66
2022/07/18 01:41:21;;;;;;;1.20;0.80;;;;;;;14.37;62.78;99631.73;25850;1313;3048677;-64
2022/07/18 01:43:50;;;;;;;4.90;1.00;;;;;;;14.36;62.44;99621.44;25966;1313;3026394;-64
2022/07/18 01:46:19;;;;;;;5.30;1.10;;;;;;;14.34;62.68;99625.44;25799;1313;3067204;-66
2022/07/18 01:48:48;;;;;;;2.60;0.70;;;;;;;14.24;62.87;99627.70;25972;1313;3026520;-64
2022/07/18 01:51:17;;;;;;;1.10;0.90;;;;;;;14.19;63.11;99631.42;25845;1313;3050361;-63
2022/07/18 01:53:55;;;;;;;3.20;0.90;;;;;;;14.09;63.26;99625.99;25884;1313;3026125;-63
2022/07/18 01:56:25;;;;;;;2.50;1.00;;;;;;;14.05;63.69;99621.21;25846;1313;3052587;-65
2022/07/18 01:58:54;;;;;;;2.40;0.70;;;;;;;14.04;63.83;99624.73;25979;1313;3026579;-65
2022/07/18 02:01:23;;;;;;;1.30;0.80;;;;;;;14.00;64.03;99625.25;25810;1313;3027193;-65
2022/07/18 02:03:52;;;;;;;3.80;1.10;;;;;;;13.99;63.85;99626.58;25953;1313;3052355;-64
2022/07/18 02:06:21;;;;;;;2.20;1.20;;;;;;;13.96;64.10;99625.31;25824;1313;3026505;-66
2022/07/18 02:08:50;;;;;;;2.60;0.90;;;;;;;13.86;64.66;99630.11;25861;1313;3050139;-63
2022/07/18 02:11:19;;;;;;;3.00;1.00;;;;;;;13.88;64.34;99633.14;25835;1315;3026492;-64
2022/07/18 02:13:49;;;;;;;3.40;1.20;;;;;;;13.76;65.06;99637.00;25879;1313;3056429;-66
2022/07/18 02:16:19;;;;;;;4.40;1.00;;;;;;;13.70;64.86;99624.02;25825;1313;3026884;-65
2022/07/18 02:18:48;;;;;;;2.20;1.20;;;;;;;13.75;64.74;99622.61;25969;1313;3026894;-66
2022/07/18 02:21:17;;;;;;;1.70;0.90;;;;;;;13.78;64.65;99623.84;25826;1313;3055343;-67
2022/07/18 02:23:45;;;;;;;2.60;1.10;;;;;;;13.82;64.54;99627.27;25924;1313;3026859;-66
2022/07/18 02:26:17;;;;;;;1.10;0.90;;;;;;;13.93;64.13;99629.48;25840;1313;3051999;-64
2022/07/18 02:28:46;;;;;;;8.90;1.10;;;;;;;14.03;63.81;99629.41;25947;1313;3026730;-63
2022/07/18 02:31:15;;;;;;;4.50;1.00;;;;;;;14.07;63.60;99633.54;25808;1313;3025989;-65
2022/07/18 02:33:44;;;;;;;4.00;1.20;;;;;;;13.97;63.69;99638.48;25818;1314;3052193;-63
2022/07/18 02:36:13;;;;;;;2.60;1.20;;;;;;;13.93;63.64;99638.95;25832;1313;3027780;-63
2022/07/18 02:38:43;;;;;;;1.50;1.10;;;;;;;13.87;64.45;99640.81;25822;1315;3052279;-65
2022/07/18 02:41:12;;;;;;;3.50;1.50;;;;;;;13.79;64.60;99640.33;25956;1313;3026088;-64
2022/07/18 02:43:41;;;;;;;3.20;1.80;;;;;;;13.78;64.72;99632.46;25801;1315;3049506;-63
2022/07/18 02:46:10;;;;;;;2.00;1.10;;;;;;;13.73;64.78;99636.15;25958;1313;3026240;-69
2022/07/18 02:48:39;;;;;;;8.20;2.10;;;;;;;13.66;64.97;99636.27;25817;1315;3068323;-63
2022/07/18 02:51:09;;;;;;;3.90;1.90;;;;;;;13.67;65.13;99635.55;25832;1313;3026687;-65
2022/07/18 02:53:38;;;;;;;2.20;1.40;;;;;;;13.71;64.79;99635.26;25894;1313;3026947;-62
2022/07/18 02:56:07;;;;;;;7.10;1.40;;;;;;;13.79;64.29;99636.63;25821;1313;3069215;-65
2022/07/18 02:58:36;;;;;;;2.10;1.20;;;;;;;13.72;64.93;99635.72;25896;1313;3026629;-64
2022/07/18 03:01:05;;;;;;;4.10;0.90;;;;;;;13.69;65.06;99637.19;25785;1313;3026917;-64
2022/07/18 03:03:34;;;;;;;2.50;0.80;;;;;;;13.75;64.95;99636.91;25939;1313;3067837;-66
2022/07/18 03:06:03;;;;;;;2.90;1.00;;;;;;;13.69;65.10;99641.39;25817;1313;3026335;-63
2022/07/18 03:08:34;;;;;;;2.60;0.80;;;;;;;13.69;65.05;99644.52;25928;1313;3051113;-65
2022/07/18 03:11:03;;;;;;;1.30;0.90;;;;;;;13.76;64.99;99641.08;25824;1313;3027024;-64
2022/07/18 03:13:32;;;;;;;4.00;0.80;;;;;;;13.72;65.26;99640.80;25938;1313;3052534;-66
2022/07/18 03:16:01;;;;;;;3.10;1.10;;;;;;;13.71;65.38;99638.95;25866;1313;3025980;-64
2022/07/18 03:18:31;;;;;;;3.60;1.30;;;;;;;13.79;65.29;99643.66;25831;1315;3048760;-62
2022/07/18 03:21:00;;;;;;;2.70;0.70;;;;;;;14.33;63.38;99636.05;25951;1313;3026473;-67
2022/07/18 03:23:29;;;;;;;2.90;1.00;;;;;;;14.79;62.39;99641.17;25863;1313;3056778;-62
2022/07/18 03:25:58;;;;;;;4.40;0.80;;;;;;;14.76;62.13;99640.86;25953;1313;3026648;-65
2022/07/18 03:28:28;;;;;;;2.10;1.00;;;;;;;14.78;61.62;99645.81;25835;1313;3052458;-66
2022/07/18 03:30:58;;;;;;;3.10;1.20;;;;;;;14.64;62.30;99645.80;25921;1313;3026717;-64
2022/07/18 03:33:27;;;;;;;4.90;1.00;;;;;;;14.44;62.89;99649.70;25876;1313;3051285;-64
2022/07/18 03:35:56;;;;;;;3.30;1.00;;;;;;;14.33;63.42;99649.10;25886;1314;3026590;-66
2022/07/18 03:38:25;;;;;;;2.00;1.00;;;;;;;14.18;63.72;99647.71;25887;1313;3048845;-63
2022/07/18 03:40:56;;;;;;;2.90;1.00;;;;;;;14.09;64.29;99652.60;25953;1313;3027491;-66
2022/07/18 03:43:25;;;;;;;5.10;1.30;;;;;;;14.12;64.32;99650.59;25848;1313;3026803;-64
2022/07/18 03:45:54;;;;;;;4.80;0.90;;;;;;;14.07;64.74;99655.34;25956;1313;3048980;-64
2022/07/18 03:48:23;;;;;;;3.20;0.70;;;;;;;14.03;64.90;99651.12;25825;1315;3026487;-65
2022/07/18 03:50:52;;;;;;;1.90;0.70;;;;;;;14.06;64.72;99650.32;25924;1313;3069254;-63
2022/07/18 03:53:21;;;;;;;6.60;0.90;;;;;;;14.10;64.60;99652.73;25838;1313;3026433;-65
2022/07/18 03:55:50;;;;;;;2.60;0.80;;;;;;;14.17;64.64;99653.25;25976;1313;3051057;-64
2022/07/18 03:58:19;;;;;;;1.60;0.70;;;;;;;14.14;64.99;99663.55;25809;1313;3026308;-65
2022/07/18 04:00:50;;;;;;;2.40;1.20;;;;;;;14.11;64.85;99658.96;25930;1313;3052413;-65
2022/07/18 04:03:19;;;;;;;2.00;1.10;;;;;;;14.16;64.73;99659.36;25837;1313;3026814;-62
2022/07/18 04:05:48;;;;;;;3.80;1.20;;;;;;;14.16;65.09;99661.05;25827;1313;3026920;-64
2022/07/18 04:08:18;;;;;;;4.20;0.70;;;;;;;14.22;65.07;99663.77;25950;1313;3026410;-66
2022/07/18 04:10:47;;;;;;;2.80;1.00;;;;;;;14.22;65.16;99668.94;25835;1313;3026223;-65
2022/07/18 04:13:16;;;;;;;4.30;1.50;;;;;;;14.23;64.97;99667.77;25968;1313;3068220;-65
2022/07/18 04:15:45;;;;;;;1.90;0.70;;;;;;;14.32;65.20;99676.29;25902;1313;3026665;-62
2022/07/18 04:18:14;;;;;;;2.90;0.90;;;;;;;14.90;63.74;99674.38;25837;1313;3026363;-64
2022/07/18 04:20:43;;;;;;;1.80;0.90;;;;;;;15.12;62.98;99674.81;25848;1315;3068742;-65
2022/07/18 04:23:16;;;;;;;2.30;0.80;;;;;;;15.13;62.45;99676.83;25949;1313;3026387;-65
2022/07/18 04:25:45;;;;;;;1.20;0.90;;;;;;;15.02;62.76;99671.19;25820;1313;3025887;-64
2022/07/18 04:28:14;;;;;;;8.60;1.00;;;;;;;14.95;62.89;99672.75;25952;1313;3068923;-63
2022/07/18 04:30:43;;;;;;;1.90;0.80;;;;;;;14.78;63.43;99678.98;25785;1315;3026962;-62
2022/07/18 04:33:12;;;;;;;1.80;0.90;;;;;;;14.64;63.81;99672.74;25890;1313;3050509;-64
2022/07/18 04:35:41;;;;;;;2.90;1.00;;;;;;;14.56;64.37;99674.91;25814;1313;3025599;-65
2022/07/18 04:38:10;;;;;;;1.80;0.90;;;;;;;14.65;64.42;99671.64;25890;1315;3052767;-63
2022/07/18 04:40:40;;;;;;;1.60;1.00;;;;;;;14.61;64.16;99675.97;25973;1313;3026172;-63
2022/07/18 04:43:09;;;;;;;2.50;1.10;;;;;;;14.64;64.16;99672.90;25799;1315;3049821;-63
2022/07/18 04:45:38;;;;;;;1.30;1.00;;;;;;;14.65;64.39;99668.09;25784;1313;3026874;-64
2022/07/18 04:48:07;;;;;;;1.80;1.10;;;;;;;14.68;64.07;99671.26;25964;1313;3026248;-65
2022/07/18 04:50:36;;;;;;;2.90;1.10;;;;;;;14.63;64.26;99671.40;25802;1313;3049581;-63
2022/07/18 04:53:05;;;;;;;2.60;1.30;;;;;;;14.73;64.20;99674.17;25931;1313;3026770;-61
2022/07/18 04:55:35;;;;;;;4.20;1.00;;;;;;;14.74;64.03;99679.23;25817;1315;3054463;-62
2022/07/18 04:58:04;;;;;;;3.20;1.20;;;;;;;14.75;63.87;99678.10;25901;1313;3027160;-63
2022/07/18 05:00:34;;;;;;;1.80;1.30;;;;;;;14.72;64.04;99679.39;25933;1313;3026618;-65
2022/07/18 05:03:03;;;;;;;4.70;1.30;;;;;;;14.79;64.16;99677.83;25856;1313;3026652;-64
2022/07/18 05:05:31;;;;;;;6.30;1.40;;;;;;;14.83;64.37;99679.33;25663;1313;3406336;-65
2022/07/18 05:08:00;;;;;;;1.90;1.00;;;;;;;14.88;63.66;99678.23;25832;1313;3026626;-64
2022/07/18 05:10:29;;;;;;;2.10;1.20;;;;;;;14.93;63.76;99683.96;25882;1313;3056069;-66
2022/07/18 05:13:00;;;;;;;2.50;1.60;;;;;;;14.89;64.01;99691.54;25945;1313;3026570;-65
2022/07/18 05:15:29;;;;;;;7.00;2.60;;;;;;;14.89;64.20;99689.26;25841;1313;3026697;-66
2022/07/18 05:17:59;;;;;;;5.50;2.50;;;;;;;14.92;64.05;99684.96;25899;1313;3056560;-66
2022/07/18 05:20:28;;;;;;;4.50;2.30;;;;;;;14.93;64.44;99689.50;25872;1313;3026028;-63
2022/07/18 05:22:57;;;;;;;4.40;2.40;;;;;;;15.05;64.02;99690.36;25823;1315;3052729;-66
2022/07/18 05:25:26;;;;;;;3.90;2.00;;;;;;;15.15;64.33;99690.67;25946;1313;3026337;-65
2022/07/18 05:28:16;;;;;;;2.10;1.10;;;;;;;15.32;63.93;99689.02;25968;1313;3052524;-63
2022/07/18 05:30:45;;;;;;;3.60;1.40;;;;;;;16.04;62.05;99691.84;25847;1313;3026488;-65
2022/07/18 05:33:14;;;;;;;8.70;2.20;;;;;;;16.48;60.57;99689.95;25960;1313;3048786;-64
2022/07/18 05:35:43;;;;;;;4.20;2.30;;;;;;;16.63;60.13;99689.98;25840;1313;3025959;-63
2022/07/18 05:38:12;;;;;;;4.00;2.10;;;;;;;16.58;60.01;99687.89;25898;1313;3073221;-66
2022/07/18 05:40:41;;;;;;;9.90;2.10;;;;;;;16.59;60.52;99688.92;25958;1313;3027043;-65
2022/07/18 05:43:10;;;;;;;6.70;1.70;;;;;;;16.48;60.88;99688.22;25845;1313;3026293;-63
2022/07/18 05:45:39;;;;;;;4.70;1.80;;;;;;;16.31;61.20;99689.95;25928;1313;3068772;-67
2022/07/18 05:48:09;;;;;;;3.80;1.40;;;;;;;16.21;61.53;99687.92;25834;1313;3026306;-67
2022/07/18 05:50:39;;;;;;;4.60;1.50;;;;;;;16.06;61.54;99683.29;25823;1312;3027294;-68
2022/07/18 05:53:08;;;;;;;2.60;1.40;;;;;;;16.06;61.63;99686.98;25950;1312;3027114;-64
2022/07/18 05:55:37;;;;;;;4.90;1.70;;;;;;;16.02;61.45;99687.27;25840;1312;3048359;-65
2022/07/18 05:58:06;;;;;;;3.10;1.50;;;;;;;16.15;61.41;99686.62;25982;1312;3026743;-66
2022/07/18 06:00:35;;;;;;;4.50;1.20;;;;;;;16.34;61.25;99683.13;25956;1311;3026696;-66
2022/07/18 06:03:05;;;;;;;4.80;2.80;;;;;;;16.46;60.42;99687.14;25830;1312;3027348;-66
2022/07/18 06:05:34;;;;;;;4.20;2.40;;;;;;;16.42;60.95;99681.80;25947;1312;3026803;-66
2022/07/18 06:08:04;;;;;;;5.40;2.70;;;;;;;16.60;60.56;99684.77;25941;1312;3026364;-66
2022/07/18 06:10:33;;;;;;;4.30;2.70;;;;;;;16.73;59.96;99680.17;25866;1312;3026041;-66
2022/07/18 06:13:02;;;;;;;5.90;3.10;;;;;;;16.82;59.56;99681.84;25959;1312;3027159;-66
2022/07/18 06:15:31;;;;;;;15.90;6.10;;;;;;;16.80;59.33;99682.89;25828;1312;3051932;-64
2022/07/18 06:18:00;;;;;;;10.60;3.60;;;;;;;16.64;59.68;99687.95;25919;1312;3026513;-66
2022/07/18 06:20:29;;;;;;;15.60;5.20;;;;;;;16.62;58.82;99683.21;25873;1312;3026161;-69
2022/07/18 06:22:58;;;;;;;32.60;10.40;;;;;;;16.65;59.12;99682.20;25866;1315;3051792;-70
2022/07/18 06:25:27;;;;;;;35.20;10.10;;;;;;;16.56;59.39;99685.73;25887;1312;3026904;-69
2022/07/18 06:27:56;;;;;;;15.20;5.10;;;;;;;16.57;59.44;99685.16;25921;1312;3048791;-64
2022/07/18 06:30:26;;;;;;;7.30;3.30;;;;;;;16.66;59.42;99676.30;25973;1312;3026651;-65
2022/07/18 06:32:55;;;;;;;7.90;2.80;;;;;;;16.71;59.62;99678.67;25867;1312;3026081;-68
2022/07/18 06:35:42;;;;;;;8.10;2.40;;;;;;;16.90;59.33;99672.41;25942;1312;3051273;-67
2022/07/18 06:38:13;;;;;;;9.10;2.10;;;;;;;17.08;58.49;99669.95;25837;1312;3026569;-67
2022/07/18 06:40:43;;;;;;;6.90;2.10;;;;;;;17.21;58.07;99672.77;25995;1312;3026007;-68
2022/07/18 06:43:19;;;;;;;2.90;1.80;;;;;;;17.18;57.56;99676.75;25830;1312;3027555;-66
2022/07/18 06:45:48;;;;;;;2.20;1.30;;;;;;;17.01;58.05;99682.83;25950;1312;3025998;-68
2022/07/18 06:48:17;;;;;;;6.40;1.70;;;;;;;16.96;58.06;99681.08;25850;1312;3026969;-67
2022/07/18 06:50:45;;;;;;;3.50;2.00;;;;;;;17.15;57.82;99680.58;25962;1312;3070649;-69
2022/07/18 06:53:16;;;;;;;4.20;1.90;;;;;;;17.22;57.53;99686.19;25986;1312;3027356;-65
2022/07/18 06:55:45;;;;;;;6.00;1.60;;;;;;;17.18;56.60;99691.09;25847;1312;3027073;-67
2022/07/18 06:58:14;;;;;;;2.30;1.30;;;;;;;17.22;55.73;99685.44;25973;1312;3069295;-65
2022/07/18 07:00:43;;;;;;;4.00;1.40;;;;;;;17.24;56.20;99686.73;25882;1312;3026425;-67
2022/07/18 07:03:12;;;;;;;6.70;1.90;;;;;;;17.37;55.68;99680.14;25964;1312;3026345;-67
2022/07/18 07:05:41;;;;;;;2.20;1.50;;;;;;;17.48;55.71;99675.29;25903;1312;3068902;-66
2022/07/18 07:08:11;;;;;;;1.30;1.00;;;;;;;17.45;54.51;99674.35;25910;1312;3026860;-66
2022/07/18 07:10:41;;;;;;;3.80;1.80;;;;;;;17.43;53.76;99685.29;25909;1312;3052011;-65
2022/07/18 07:13:11;;;;;;;3.40;1.20;;;;;;;17.52;53.83;99676.72;25845;1312;3026613;-67
2022/07/18 07:15:42;;;;;;;1.50;1.10;;;;;;;17.62;53.68;99677.81;25994;1312;3026058;-67
2022/07/18 07:18:12;;;;;;;3.80;0.90;;;;;;;17.65;53.77;99679.33;25943;1312;3051048;-66
2022/07/18 07:20:41;;;;;;;2.10;1.10;;;;;;;17.57;53.34;99686.00;25862;1312;3026733;-65
2022/07/18 07:23:10;;;;;;;1.80;1.10;;;;;;;17.74;52.90;99685.04;25978;1312;3051823;-66
2022/07/18 07:25:40;;;;;;;2.60;1.20;;;;;;;17.87;52.32;99687.19;25985;1312;3026683;-68
2022/07/18 07:28:09;;;;;;;2.00;1.10;;;;;;;17.92;52.02;99692.79;25862;1312;3026150;-65
2022/07/18 07:30:38;;;;;;;2.40;1.00;;;;;;;17.94;51.88;99696.88;25857;1312;3053788;-64
2022/07/18 07:33:09;;;;;;;5.20;1.30;;;;;;;17.91;51.31;99698.10;25940;1312;3027199;-65
2022/07/18 07:35:38;;;;;;;3.60;1.10;;;;;;;17.82;51.60;99703.00;25870;1312;3050451;-67
2022/07/18 07:38:07;;;;;;;3.10;1.40;;;;;;;17.92;50.70;99690.83;25860;1312;3026355;-67
2022/07/18 07:40:36;;;;;;;3.40;1.50;;;;;;;18.19;50.70;99686.98;25975;1312;3056241;-67
2022/07/18 07:43:11;;;;;;;3.90;0.90;;;;;;;18.37;50.07;99701.58;25835;1312;3026273;-69
2022/07/18 07:45:40;;;;;;;2.70;1.10;;;;;;;18.39;49.19;99701.23;25926;1312;3027192;-65
2022/07/18 07:48:09;;;;;;;4.70;1.00;;;;;;;18.50;49.32;99694.56;25824;1316;3026611;-62
2022/07/18 07:50:38;;;;;;;2.10;0.90;;;;;;;18.61;49.18;99696.61;25804;1312;3027058;-64
2022/07/18 07:53:07;;;;;;;4.90;0.80;;;;;;;18.77;48.59;99694.25;25908;1312;3025950;-63
2022/07/18 07:55:36;;;;;;;2.20;0.70;;;;;;;18.76;47.63;99701.27;25749;1311;3051690;-67
2022/07/18 07:58:06;;;;;;;2.40;0.90;;;;;;;18.69;47.35;99701.69;25763;1315;3026451;-66
2022/07/18 08:00:35;;;;;;;3.20;1.00;;;;;;;18.88;47.25;99698.04;25793;1312;3052749;-65
2022/07/18 08:03:05;;;;;;;2.10;0.80;;;;;;;18.94;46.27;99703.41;25927;1312;3026178;-64
2022/07/18 08:05:37;;;;;;;7.50;1.00;;;;;;;18.83;47.23;99694.58;25948;1312;3049412;-66
2022/07/18 08:08:06;;;;;;;3.90;0.90;;;;;;;19.13;47.03;99688.98;25954;1312;3027096;-67
2022/07/18 08:10:35;;;;;;;2.50;1.10;;;;;;;19.18;46.47;99700.96;25889;1312;3026388;-68
2022/07/18 08:13:06;;;;;;;1.20;1.00;;;;;;;19.18;46.27;99699.73;25945;1312;3026839;-63
2022/07/18 08:15:35;;;;;;;4.00;1.10;;;;;;;19.25;46.30;99695.67;25852;1312;3026886;-66
2022/07/18 08:18:08;;;;;;;3.00;1.60;;;;;;;19.26;46.41;99695.42;25965;1311;3051373;-68
2022/07/18 08:20:37;;;;;;;1.60;0.60;;;;;;;19.25;45.65;99696.91;25813;1312;3026496;-67
2022/07/18 08:23:10;;;;;;;2.20;0.80;;;;;;;19.19;46.05;99699.86;25968;1312;3054000;-65
2022/07/18 08:25:41;;;;;;;2.40;0.90;;;;;;;19.00;46.31;99696.62;25963;1312;3051211;-66
2022/07/18 08:28:10;;;;;;;4.00;1.80;;;;;;;19.06;46.77;99692.45;25922;1312;3026687;-64
2022/07/18 08:30:40;;;;;;;4.00;1.30;;;;;;;19.21;46.78;99696.21;25950;1312;3026275;-66
2022/07/18 08:33:09;;;;;;;3.70;1.40;;;;;;;19.29;45.70;99701.97;25827;1312;3026481;-64
2022/07/18 08:35:38;;;;;;;3.70;1.00;;;;;;;19.31;45.98;99694.09;25937;1312;3069063;-65
2022/07/18 08:38:06;;;;;;;4.70;1.30;;;;;;;19.36;45.99;99693.48;25863;1312;3026501;-66
2022/07/18 08:40:37;;;;;;;2.10;0.70;;;;;;;19.38;45.52;99692.87;25958;1312;3049678;-65
2022/07/18 08:43:06;;;;;;;1.50;0.70;;;;;;;19.25;44.32;99690.58;25947;1312;3027362;-66
2022/07/18 08:45:35;;;;;;;4.50;1.10;;;;;;;19.42;44.17;99694.48;25852;1312;3026773;-68
2022/07/18 08:48:04;;;;;;;3.90;0.80;;;;;;;19.60;43.24;99688.71;25922;1312;3026364;-66
2022/07/18 08:50:33;;;;;;;6.50;0.80;;;;;;;19.75;42.66;99695.60;25933;1312;3068564;-65
2022/07/18 08:53:05;;;;;;;2.50;0.60;;;;;;;19.70;42.29;99704.35;25778;1313;3026616;-63
2022/07/18 08:55:34;;;;;;;2.80;0.60;;;;;;;19.81;42.14;99693.52;25885;1312;3026186;-63
2022/07/18 08:58:03;;;;;;;4.20;0.80;;;;;;;19.80;42.10;99697.80;25847;1312;3026183;-66
2022/07/18 09:00:34;;;;;;;3.40;0.70;;;;;;;19.94;42.70;99687.35;25849;1312;3048844;-66
2022/07/18 09:03:03;;;;;;;2.70;0.70;;;;;;;19.92;42.04;99690.31;25840;1312;3026650;-68
2022/07/18 09:05:32;;;;;;;3.50;0.90;;;;;;;20.14;42.46;99683.19;25970;1312;3026675;-68
2022/07/18 09:08:27;;;;;;;1.70;0.80;;;;;;;20.35;42.14;99690.12;25797;1312;3048792;-67
2022/07/18 09:10:58;;;;;;;4.80;0.80;;;;;;;20.32;41.28;99696.05;25887;1312;3052294;-66
2022/07/18 09:13:33;;;;;;;4.80;0.80;;;;;;;20.36;41.24;99699.80;25867;1312;3026363;-67
2022/07/18 09:16:12;;;;;;;3.90;0.60;;;;;;;20.37;41.95;99702.81;25851;1312;3057187;-65
2022/07/18 09:18:41;;;;;;;;;;;;;;;20.37;42.35;99698.75;25840;1312;3049868;-67
2022/07/18 09:21:12;;;;;;;4.60;0.80;;;;;;;20.42;42.41;99697.60;25860;1312;3026799;-66
2022/07/18 09:23:43;;;;;;;3.60;0.90;;;;;;;20.45;42.42;99699.09;25869;1312;3026630;-66
2022/07/18 09:26:12;;;;;;;5.20;0.80;;;;;;;20.37;42.54;99701.95;25966;1312;3027308;-67
2022/07/18 09:28:48;;;;;;;1.20;0.70;;;;;;;20.22;42.38;99716.75;25863;1312;3026849;-66
2022/07/18 09:31:20;;;;;;;2.50;0.80;;;;;;;20.39;42.14;99697.66;25861;1312;3051559;-64
2022/07/18 09:33:53;;;;;;;1.60;1.00;;;;;;;20.51;41.76;99704.86;25846;1312;3026557;-66
2022/07/18 09:36:22;;;;;;;2.50;1.10;;;;;;;20.51;41.83;99722.16;25963;1312;3026281;-64
2022/07/18 09:38:51;;;;;;;1.70;0.70;;;;;;;20.44;41.93;99712.13;25209;1312;3026408;-68
2022/07/18 09:41:24;;;;;;;3.80;0.80;;;;;;;20.45;42.61;99709.16;25094;1315;3070871;-66
2022/07/18 09:43:53;;;;;;;3.40;0.80;;;;;;;20.66;42.25;99708.89;25193;1312;3049938;-69
2022/07/18 09:46:25;;;;;;;1.40;0.60;;;;;;;20.70;41.38;99715.13;25144;1312;3026367;-67
2022/07/18 09:49:10;;;;;;;3.80;0.70;;;;;;;20.44;40.60;99719.64;25170;1312;3026323;-66
2022/07/18 09:52:01;;;;;;;2.70;0.90;;;;;;;20.49;41.66;99725.19;25224;1312;3059103;-66
2022/07/18 09:54:41;;;;;;;1.80;0.80;;;;;;;20.56;41.61;99709.00;25084;1312;3049923;-67
2022/07/18 09:57:22;;;;;;;1.50;0.60;;;;;;;20.66;41.52;99715.69;25271;1312;3053458;-65
2022/07/18 09:59:51;;;;;;;3.20;0.90;;;;;;;20.39;42.03;99716.60;25087;1315;3053894;-69
2022/07/18 10:02:20;;;;;;;1.90;0.70;;;;;;;20.42;41.80;99713.74;25177;1312;3026366;-68
2022/07/18 10:04:51;;;;;;;1.10;0.80;;;;;;;20.53;41.53;99733.89;25108;1312;3056004;-65
2022/07/18 10:07:20;;;;;;;2.90;1.00;;;;;;;20.61;41.36;99717.11;25102;1312;3026562;-66
2022/07/18 10:09:53;;;;;;;1.50;0.70;;;;;;;20.87;41.08;99718.66;25072;1312;3026433;-64
2022/07/18 10:12:22;;;;;;;1.20;1.00;;;;;;;21.14;40.57;99716.77;25090;1312;3026790;-69
2022/07/18 10:14:51;;;;;;;3.20;1.80;;;;;;;21.19;40.33;99719.15;25141;1312;3051498;-65
2022/07/18 10:17:20;;;;;;;3.20;0.90;;;;;;;21.06;40.88;99721.96;25185;1312;3026613;-69
2022/07/18 10:19:51;;;;;;;3.90;0.80;;;;;;;21.03;40.77;99719.60;25027;1316;3056024;-67
2022/07/18 10:22:20;;;;;;;4.00;0.90;;;;;;;21.08;40.52;99720.95;25112;1312;3026481;-68
2022/07/18 10:24:49;;;;;;;1.60;0.90;;;;;;;21.30;40.42;99723.77;25084;1315;3048481;-67
2022/07/18 10:27:23;;;;;;;2.00;1.00;;;;;;;21.15;40.92;99729.38;25120;1315;3027090;-67
2022/07/18 10:30:11;;;;;;;2.40;0.80;;;;;;;20.88;41.47;99721.73;25148;1312;3027399;-64
2022/07/18 10:32:40;;;;;;;1.30;0.70;;;;;;;21.08;40.64;99724.55;25160;1312;3072170;-65
2022/07/18 10:35:13;;;;;;;1.60;0.60;;;;;;;21.26;40.21;99728.19;25166;1312;3026471;-65
2022/07/18 10:37:42;;;;;;;1.40;0.80;;;;;;;21.42;40.00;99722.88;25181;1313;3026138;-68
2022/07/18 10:40:24;;;;;;;1.30;0.80;;;;;;;21.44;40.67;99723.05;25212;1312;3026377;-69
2022/07/18 10:43:29;;;;;;;3.70;1.10;;;;;;;21.62;40.58;99719.79;25238;1312;3049666;-64
2022/07/18 10:45:59;;;;;;;5.00;0.90;;;;;;;21.69;39.72;99727.85;25225;1312;3055540;-67
2022/07/18 10:48:35;;;;;;;3.70;0.80;;;;;;;21.74;39.59;99717.27;25263;1312;3027966;-67
2022/07/18 10:51:08;;;;;;;1.20;0.70;;;;;;;22.00;39.49;99719.98;25217;1312;3056330;-66
2022/07/18 10:53:57;;;;;;;3.10;1.10;;;;;;;21.96;40.07;99714.29;25132;1311;3026870;-64
2022/07/18 10:56:26;;;;;;;2.90;1.00;;;;;;;21.94;39.35;99721.20;25179;1312;3056504;-64
2022/07/18 10:58:55;;;;;;;1.10;0.60;;;;;;;21.79;38.45;99718.95;25190;1312;3027529;-68
2022/07/18 11:01:25;;;;;;;4.00;2.10;;;;;;;21.89;38.22;99714.38;25200;1312;3049808;-68
2022/07/18 11:04:26;;;;;;;4.90;2.20;;;;;;;22.01;37.66;99709.48;25251;1312;3027298;-67
2022/07/18 11:07:23;;;;;;;4.30;1.20;;;;;;;22.35;38.16;99714.38;25160;1312;3054222;-67
2022/07/18 11:09:52;;;;;;;4.10;1.00;;;;;;;22.57;38.46;99707.45;25201;1315;3067742;-65
2022/07/18 11:12:31;;;;;;;2.30;1.10;;;;;;;22.47;38.37;99713.89;25160;1312;3026758;-68
2022/07/18 11:15:08;;;;;;;1.90;1.30;;;;;;;22.18;38.76;99715.99;25299;1312;3054967;-68
2022/07/18 11:17:58;;;;;;;4.10;1.20;;;;;;;22.04;39.25;99721.16;25058;1312;3052348;-66
2022/07/18 11:20:35;;;;;;;4.90;1.40;;;;;;;21.61;39.91;99732.02;25209;1312;3056147;-65
2022/07/18 11:23:22;;;;;;;2.40;1.10;;;;;;;21.76;39.76;99726.62;25111;1312;3050614;-67
2022/07/18 11:25:56;;;;;;;4.10;0.90;;;;;;;22.12;39.16;99726.45;25211;1312;3055854;-64
2022/07/18 11:28:27;;;;;;;1.40;1.00;;;;;;;22.13;38.10;99725.97;25114;1312;3052565;-64
2022/07/18 11:31:07;;;;;;;1.60;0.80;;;;;;;22.32;37.73;99714.88;25091;1312;3026832;-65
2022/07/18 11:33:38;;;;;;;7.00;1.30;;;;;;;22.35;37.90;99721.20;25253;1312;3049648;-65
2022/07/18 11:36:12;;;;;;;4.70;1.10;;;;;;;22.51;37.74;99722.90;25174;1312;3026406;-64